Flight Track Log - Related Links

Times and Time Zones

All times are in EDT time to prevent confusion due to time zone crossing. See the N465TP flight status page for this flight to view local times or setup timezone preferences in your user account.

Time Position Orientation Groundspeed Altitude Reporting Facility
EDT Latitude Longitude Course Direction KTS MPH feet Rate Location/Type
Sun 01:40:57 PM 45.2011 -111.3756 110° East 184 212 14,100  Level Salt Lake Center
Sun 01:41:59 PM 45.1817 -111.3053 111° Southeast 185 213 15,300 871 Climbing Salt Lake Center
Sun 01:43:01 PM 45.1589 -111.2236 112° Southeast 201 231 15,900 290 Climbing Salt Lake Center
Sun 01:44:03 PM 45.1339 -111.1344 112° Southeast 234 269 15,900  Level Salt Lake Center
Sun 01:45:00 PM 45.1696 -111.2671 108° East  Level Estimated
Sun 01:45:02 PM 45.1094 -111.0511 113° Southeast 262 302 15,900  Level Salt Lake Center
Sun 01:46:03 PM 45.0853 -110.9603 111° Southeast 248 285 17,200 1,131 Climbing Salt Lake Center
Sun 01:47:04 PM 45.0642 -110.8833 111° Southeast 216 249 18,200 791 Climbing Salt Lake Center
Sun 01:48:12 PM 45.0394 -110.8000 113° Southeast 212 244 18,900 397 Climbing Salt Lake Center
Sun 01:49:05 PM 45.0142 -110.7150 113° Southeast 236 272 19,000 53 Climbing Salt Lake Center
Sun 01:50:06 PM 44.9856 -110.6172 112° Southeast 264 304 19,000  Level Salt Lake Center
Sun 01:50:16 PM 44.9864 -110.6114 79° East 263 303 19,000  Level Salt Lake Center
Sun 01:51:00 PM 44.9603 -110.5239 113° Southeast 273 314 19,000  Level Salt Lake Center
Sun 01:51:18 PM 44.9533 -110.4956 109° East 269 310 19,000  Level Salt Lake Center
Sun 01:52:01 PM 44.9331 -110.4225 111° Southeast 271 312 19,000  Level Salt Lake Center
Sun 01:52:20 PM 44.9250 -110.3983 115° Southeast 268 308 19,000  Level Salt Lake Center
Sun 01:53:02 PM 44.9092 -110.3442 112° Southeast 269 310 19,000  Level Salt Lake Center
Sun 01:53:22 PM 44.8983 -110.3025 110° East 265 305 19,000  Level Salt Lake Center
Sun 01:54:03 PM 44.8808 -110.2494 115° Southeast 266 306 19,000  Level Salt Lake Center
Sun 01:54:24 PM 44.8714 -110.2064 107° East 265 305 19,000  Level Salt Lake Center
Sun 01:55:09 PM 44.8472 -110.1328 115° Southeast 264 304 19,000  Level Salt Lake Center
Sun 01:55:26 PM 44.8428 -110.1097 105° East 265 305 19,000  Level Salt Lake Center
Sun 01:56:10 PM 44.8208 -110.0372 113° Southeast 265 305 19,000  Level Salt Lake Center
Sun 01:56:28 PM 44.8150 -110.0133 109° East 265 305 19,000  Level Salt Lake Center
Sun 01:57:11 PM 44.7917 -109.9400 114° Southeast 267 307 19,000  Level Salt Lake Center
Sun 01:57:30 PM 44.7797 -109.8975 112° Southeast 265 305 19,000  Level Salt Lake Center
Sun 01:58:12 PM 44.7650 -109.8447 111° Southeast 268 308 19,000  Level Salt Lake Center
Sun 01:58:33 PM 44.7525 -109.8056 114° Southeast 266 306 19,000  Level Salt Lake Center
Sun 01:59:13 PM 44.7339 -109.7486 115° Southeast 270 311 19,000  Level Salt Lake Center
Sun 01:59:35 PM 44.7247 -109.7161 112° Southeast 257 296 19,000 -100 Level Salt Lake Center
Sun 02:00:13 PM 44.7128 -109.6756 112° Southeast 213 245 18,900  Descending Salt Lake Center
Sun 02:00:37 PM 44.7069 -109.6492 107° East 199 229 19,000 70 Climbing Salt Lake Center
Sun 02:01:39 PM 44.6778 -109.5478 112° Southeast 223 257 19,000 -677 Level Salt Lake Center
Sun 02:02:41 PM 44.6506 -109.4561 113° Southeast 246 283 17,600 -1,597 Descending Salt Lake Center
Sun 02:03:43 PM 44.6219 -109.3675 114° Southeast 247 284 15,700 -1,839 Descending Salt Lake Center

Login

Don't have an account? Register now (free) for customized features, flight alerts, and more!